Time;durP1;ratioP1;P1;durP2;ratioP2;P2;SDS_P1;SDS_P2;PMS_P1;PMS_P2;Temp;Humidity;BMP_temperature;BMP_pressure;BME280_temperature;BME280_humidity;BME280_pressure;Samples;Min_cycle;Max_cycle;Signal;HPM_P1;HPM_P2
2021/06/30 00:01:38;;;;;;;7.67;4.97;;;;;;;19.04;69.11;100194.30;1696289;83;21066;-73
2021/06/30 00:04:05;;;;;;;9.10;4.30;;;;;;;19.00;69.34;100192.52;1697346;83;21101;-73
2021/06/30 00:06:32;;;;;;;6.78;4.28;;;;;;;19.02;69.32;100193.67;1698718;83;21518;-73
2021/06/30 00:08:59;;;;;;;7.97;5.10;;;;;;;19.07;69.29;100188.09;1707123;83;21596;-73
2021/06/30 00:11:26;;;;;;;6.60;4.05;;;;;;;19.09;69.32;100191.41;1679005;83;21050;-73
2021/06/30 00:13:54;;;;;;;6.70;4.33;;;;;;;19.08;69.35;100193.77;1702694;83;21385;-73
2021/06/30 00:16:21;;;;;;;7.22;4.75;;;;;;;19.08;69.34;100195.09;1698982;83;21791;-73
2021/06/30 00:18:47;;;;;;;7.87;5.12;;;;;;;19.08;69.29;100199.58;1700177;83;21154;-73
2021/06/30 00:21:14;;;;;;;7.87;4.85;;;;;;;19.05;69.29;100205.30;1702445;83;21109;-73
2021/06/30 00:23:43;;;;;;;8.75;4.78;;;;;;;18.99;69.67;100211.36;1680722;83;21814;-73
2021/06/30 00:26:09;;;;;;;7.12;4.55;;;;;;;18.98;69.97;100217.20;1677055;83;21047;-73
2021/06/30 00:28:36;;;;;;;7.55;4.25;;;;;;;19.01;69.87;100222.66;1702014;83;21024;-73
2021/06/30 00:31:02;;;;;;;6.70;4.72;;;;;;;19.02;69.51;100225.66;1705014;83;21051;-73
2021/06/30 00:33:28;;;;;;;9.50;4.83;;;;;;;18.99;69.50;100225.51;1699035;83;21062;-73
2021/06/30 00:35:55;;;;;;;8.70;4.58;;;;;;;18.94;69.56;100223.37;1682818;83;21846;-73
2021/06/30 00:38:21;;;;;;;6.12;4.33;;;;;;;18.88;69.61;100225.97;1704752;83;21019;-73
2021/06/30 00:40:48;;;;;;;8.75;4.55;;;;;;;18.87;69.68;100222.97;1701976;83;21062;-72
2021/06/30 00:43:15;;;;;;;10.53;4.90;;;;;;;18.87;69.75;100222.97;1676677;83;21137;-73
2021/06/30 00:45:41;;;;;;;9.95;5.22;;;;;;;18.87;69.78;100217.64;1675871;83;22427;-73
2021/06/30 00:48:09;;;;;;;10.60;4.92;;;;;;;18.86;69.68;100217.30;1696659;83;21098;-73
2021/06/30 00:50:36;;;;;;;7.60;4.70;;;;;;;18.84;69.74;100214.00;1667751;83;21110;-72
2021/06/30 00:53:02;;;;;;;7.50;4.78;;;;;;;18.81;69.76;100212.51;1685087;84;21078;-73
2021/06/30 00:55:29;;;;;;;9.60;4.87;;;;;;;18.78;69.82;100214.20;1686403;84;21075;-73
2021/06/30 00:57:55;;;;;;;7.70;4.90;;;;;;;18.78;69.78;100208.86;1699409;83;21153;-73
2021/06/30 01:00:21;;;;;;;7.85;4.90;;;;;;;18.82;69.71;100214.66;1663776;85;21162;-73
2021/06/30 01:02:48;;;;;;;7.28;4.62;;;;;;;18.80;69.73;100211.34;1662245;85;21601;-73
2021/06/30 01:05:15;;;;;;;7.80;4.78;;;;;;;18.83;69.82;100214.52;1664319;85;21072;-73
2021/06/30 01:07:44;;;;;;;7.95;6.05;;;;;;;18.85;69.85;100211.67;1653227;85;21056;-73
2021/06/30 01:10:11;;;;;;;7.22;5.03;;;;;;;18.83;70.02;100210.52;1654196;85;21008;-73
2021/06/30 01:12:39;;;;;;;9.23;4.50;;;;;;;18.82;70.07;100209.33;1676535;85;21048;-73
2021/06/30 01:15:10;;;;;;;8.48;4.97;;;;;;;18.79;70.18;100211.02;1665634;84;21803;-73
2021/06/30 01:17:37;;;;;;;9.03;5.08;;;;;;;18.74;70.29;100209.73;1664149;85;21506;-73
2021/06/30 01:20:06;;;;;;;6.72;4.65;;;;;;;18.72;70.48;100206.39;1637781;85;21063;-73
2021/06/30 01:22:32;;;;;;;7.55;5.20;;;;;;;18.73;70.67;100204.58;1667492;85;21110;-73
2021/06/30 01:24:58;;;;;;;7.97;5.58;;;;;;;18.73;70.83;100200.07;1666227;85;21858;-73
2021/06/30 01:27:31;;;;;;;7.33;5.53;;;;;;;18.74;70.98;100200.41;1662719;85;21118;-73
2021/06/30 01:29:57;;;;;;;8.40;5.22;;;;;;;18.71;71.18;100198.09;1659891;85;21083;-73
2021/06/30 01:32:24;;;;;;;7.22;4.92;;;;;;;18.68;71.18;100189.13;1642011;85;21090;-73
2021/06/30 01:34:51;;;;;;;7.72;5.17;;;;;;;18.65;71.20;100186.81;1667330;85;21437;-73
2021/06/30 01:37:17;;;;;;;7.55;5.20;;;;;;;18.67;71.27;100189.30;1659792;85;21126;-73
2021/06/30 01:39:45;;;;;;;7.45;4.83;;;;;;;18.72;71.29;100191.73;1664897;85;21059;-73
2021/06/30 01:42:11;;;;;;;8.15;5.08;;;;;;;18.75;71.33;100194.56;1669002;85;21767;-73
2021/06/30 01:44:37;;;;;;;7.00;5.00;;;;;;;18.78;71.62;100196.87;1667816;85;21107;-73
2021/06/30 01:47:04;;;;;;;7.22;5.45;;;;;;;18.80;71.79;100199.36;1665246;85;21546;-73
2021/06/30 01:49:30;;;;;;;7.65;5.37;;;;;;;18.82;71.84;100207.99;1675279;83;21266;-73
2021/06/30 01:51:57;;;;;;;7.83;5.65;;;;;;;18.77;71.82;100199.20;1671842;83;21083;-73
2021/06/30 01:54:23;;;;;;;8.83;5.58;;;;;;;18.74;71.98;100220.39;1712267;83;21134;-72
2021/06/30 01:56:51;;;;;;;7.87;5.20;;;;;;;18.70;72.07;100207.60;1707917;83;21081;-73
2021/06/30 01:59:18;;;;;;;10.50;5.95;;;;;;;18.68;72.16;100206.95;1711057;83;21018;-73
2021/06/30 02:01:44;;;;;;;7.58;4.72;;;;;;;18.74;72.22;100204.89;1702036;83;21140;-73
2021/06/30 02:04:10;;;;;;;7.95;5.45;;;;;;;18.75;72.02;100211.89;1709467;83;21022;-73
2021/06/30 02:06:42;;;;;;;9.98;5.65;;;;;;;18.78;71.89;100218.19;1704899;82;21536;-73
2021/06/30 02:09:11;;;;;;;8.48;5.10;;;;;;;18.82;71.70;100226.66;1706674;83;21597;-73
2021/06/30 02:11:40;;;;;;;7.55;4.90;;;;;;;18.80;71.32;100221.50;1707627;82;21047;-73
2021/06/30 02:14:07;;;;;;;9.23;5.67;;;;;;;18.75;71.22;100222.03;1706888;83;21133;-73
2021/06/30 02:16:35;;;;;;;6.87;5.00;;;;;;;18.71;71.35;100229.23;1703943;81;21530;-73
2021/06/30 02:19:05;;;;;;;6.65;4.97;;;;;;;18.73;71.32;100231.23;1700727;83;21106;-73
2021/06/30 02:21:32;;;;;;;7.42;5.40;;;;;;;18.80;71.02;100230.83;1700456;83;21059;-73
2021/06/30 02:23:59;;;;;;;7.87;5.15;;;;;;;18.84;70.91;100229.48;1698415;83;21066;-73
2021/06/30 02:26:27;;;;;;;9.35;5.47;;;;;;;18.88;70.88;100238.79;1675496;83;21068;-73
2021/06/30 02:28:56;;;;;;;7.12;5.00;;;;;;;18.91;70.84;100233.58;1689029;83;21062;-73
2021/06/30 02:31:23;;;;;;;11.30;5.33;;;;;;;18.92;70.87;100235.25;1702075;83;21074;-73
2021/06/30 02:33:50;;;;;;;9.43;5.97;;;;;;;18.92;70.73;100240.58;1701591;83;21075;-73
2021/06/30 02:36:19;;;;;;;7.67;4.67;;;;;;;18.88;70.83;100240.63;1700289;83;21568;-73
2021/06/30 02:38:46;;;;;;;5.92;4.37;;;;;;;18.88;70.83;100237.45;1702556;83;21159;-73
2021/06/30 02:41:12;;;;;;;7.45;5.12;;;;;;;18.94;70.86;100241.22;1676395;82;21146;-73
2021/06/30 02:43:39;;;;;;;6.90;5.00;;;;;;;18.95;70.82;100232.23;1704368;83;21043;-73
2021/06/30 02:46:06;;;;;;;6.90;4.65;;;;;;;18.99;70.91;100234.84;1700278;83;21146;-73
2021/06/30 02:48:32;;;;;;;7.50;5.45;;;;;;;19.03;71.12;100237.48;1687735;83;21101;-73
2021/06/30 02:50:59;;;;;;;9.18;6.40;;;;;;;19.05;71.18;100242.12;1704934;83;21070;-73
2021/06/30 02:53:26;;;;;;;9.85;5.70;;;;;;;19.07;71.16;100241.95;1704551;83;21050;-74
2021/06/30 02:55:53;;;;;;;9.80;5.70;;;;;;;19.07;71.29;100244.61;1708540;83;21063;-74
2021/06/30 02:58:20;;;;;;;8.25;5.22;;;;;;;19.09;71.46;100246.07;1701014;83;21035;-73
2021/06/30 03:00:47;;;;;;;8.60;4.85;;;;;;;19.16;71.37;100250.69;1681114;83;21095;-73
2021/06/30 03:03:13;;;;;;;7.45;5.30;;;;;;;19.22;71.27;100239.30;1704265;81;21126;-73
2021/06/30 03:05:40;;;;;;;7.33;4.67;;;;;;;19.27;71.18;100238.23;1701553;83;21521;-73
2021/06/30 03:08:06;;;;;;;9.68;5.00;;;;;;;19.34;71.09;100241.83;1701341;83;21164;-73
2021/06/30 03:10:33;;;;;;;9.20;5.12;;;;;;;19.41;70.95;100240.58;1708905;83;21079;-73
2021/06/30 03:13:00;;;;;;;7.70;5.60;;;;;;;19.44;71.01;100242.89;1684396;83;21070;-74
2021/06/30 03:15:26;;;;;;;9.18;5.78;;;;;;;19.46;70.92;100244.34;1700327;83;21763;-73
2021/06/30 03:17:53;;;;;;;8.80;5.67;;;;;;;19.45;71.05;100244.04;1699027;81;21455;-73
2021/06/30 03:20:20;;;;;;;8.15;5.42;;;;;;;19.48;71.14;100242.83;1701940;83;21074;-73
2021/06/30 03:22:46;;;;;;;8.68;5.40;;;;;;;19.55;71.10;100244.25;1701000;81;21866;-73
2021/06/30 03:25:15;;;;;;;9.35;5.90;;;;;;;19.61;71.04;100248.86;1704790;83;21058;-73
2021/06/30 03:27:42;;;;;;;7.42;5.35;;;;;;;19.67;70.85;100242.79;1704090;83;21148;-72
2021/06/30 03:30:10;;;;;;;8.58;6.10;;;;;;;19.72;70.90;100240.87;1678497;83;21062;-73
2021/06/30 03:32:36;;;;;;;9.38;6.58;;;;;;;19.77;70.90;100240.69;1709217;83;21122;-72
2021/06/30 03:35:05;;;;;;;9.08;6.35;;;;;;;19.78;70.76;100241.50;1704206;83;21125;-73
2021/06/30 03:37:31;;;;;;;8.75;6.47;;;;;;;19.79;70.72;100242.66;1710741;83;21109;-73
2021/06/30 03:39:57;;;;;;;9.08;5.83;;;;;;;19.81;70.80;100241.95;1700493;83;21157;-73
2021/06/30 03:42:24;;;;;;;11.45;5.67;;;;;;;19.85;70.86;100247.26;1705016;83;21090;-73
2021/06/30 03:44:52;;;;;;;9.25;5.30;;;;;;;19.94;70.68;100239.11;1698818;83;22003;-73
2021/06/30 03:47:19;;;;;;;7.58;5.87;;;;;;;19.99;70.58;100248.75;1695645;83;21523;-73
2021/06/30 03:49:46;;;;;;;7.97;6.00;;;;;;;20.03;70.61;100244.68;1678405;83;21122;-73
2021/06/30 03:52:12;;;;;;;7.33;5.75;;;;;;;20.05;70.67;100243.97;1675151;83;21569;-73
2021/06/30 03:54:39;;;;;;;7.72;5.50;;;;;;;20.12;70.61;100249.39;1697372;83;21074;-73
2021/06/30 03:57:06;;;;;;;8.65;6.03;;;;;;;20.16;70.49;100252.84;1699277;83;21684;-73
2021/06/30 03:59:32;;;;;;;8.85;6.00;;;;;;;20.20;70.22;100248.76;1697289;83;21071;-73
2021/06/30 04:01:59;;;;;;;6.95;5.42;;;;;;;20.24;69.92;100249.23;1698884;83;21054;-74
2021/06/30 04:04:26;;;;;;;6.40;4.37;;;;;;;20.30;69.11;100252.98;1692817;83;21635;-74
2021/06/30 04:06:55;;;;;;;7.53;5.00;;;;;;;20.35;68.08;100259.92;1697052;82;21137;-72
2021/06/30 04:09:23;;;;;;;6.42;4.53;;;;;;;20.39;67.32;100263.36;1638640;83;21165;-74
2021/06/30 04:11:49;;;;;;;6.30;4.62;;;;;;;20.43;66.80;100259.80;1699633;83;21169;-74
2021/06/30 04:14:16;;;;;;;8.90;5.00;;;;;;;20.46;66.57;100258.09;1674538;83;21081;-74
2021/06/30 04:16:43;;;;;;;8.58;5.12;;;;;;;20.48;66.18;100261.39;1678749;83;21111;-74
2021/06/30 04:19:10;;;;;;;8.43;4.55;;;;;;;20.51;65.99;100257.00;1694328;83;21067;-73
2021/06/30 04:21:36;;;;;;;6.05;4.33;;;;;;;20.54;65.98;100256.63;1692847;82;21082;-74
2021/06/30 04:24:06;;;;;;;6.97;4.75;;;;;;;20.62;65.81;100253.50;1663568;83;21098;-75
2021/06/30 04:26:32;;;;;;;7.25;4.50;;;;;;;20.71;65.42;100251.88;1690757;82;21608;-75
2021/06/30 04:28:58;;;;;;;6.95;4.90;;;;;;;20.80;65.24;100252.55;1696673;83;21154;-74
2021/06/30 04:31:25;;;;;;;6.20;4.80;;;;;;;20.85;65.21;100257.33;1674333;83;21628;-74
2021/06/30 04:33:51;;;;;;;8.15;4.75;;;;;;;20.89;65.33;100251.38;1689596;82;21070;-74
2021/06/30 04:36:18;;;;;;;7.78;4.78;;;;;;;20.95;65.18;100265.33;1706958;82;21086;-74
2021/06/30 04:38:44;;;;;;;7.72;4.47;;;;;;;20.97;65.31;100260.60;1666895;83;21119;-73
2021/06/30 04:41:11;;;;;;;7.62;4.92;;;;;;;20.99;65.46;100266.28;1683722;83;22196;-73
2021/06/30 04:43:39;;;;;;;6.85;4.78;;;;;;;21.03;65.49;100265.70;1693476;82;21058;-75
2021/06/30 04:46:06;;;;;;;6.50;4.15;;;;;;;21.12;65.07;100271.73;1678003;83;21553;-74
2021/06/30 04:48:34;;;;;;;6.37;3.77;;;;;;;21.20;63.94;100266.23;1697942;83;21122;-74
2021/06/30 04:51:02;;;;;;;7.33;4.30;;;;;;;21.24;63.23;100268.83;1700031;83;21122;-75
2021/06/30 04:53:29;;;;;;;5.47;3.45;;;;;;;21.26;63.21;100265.44;1699264;83;22318;-75
2021/06/30 04:55:56;;;;;;;6.72;4.65;;;;;;;21.29;63.24;100262.89;1699313;83;21074;-77
2021/06/30 04:58:23;;;;;;;7.30;3.58;;;;;;;21.31;63.25;100254.97;1690467;82;21070;-77
2021/06/30 05:03:09;;;;;;;6.08;3.72;;;;;;;21.42;62.75;100250.11;1869650;75;22601;-69
2021/06/30 05:05:37;;;;;;;5.60;4.00;;;;;;;21.41;63.09;100255.14;1850223;75;21041;-74
2021/06/30 05:08:05;;;;;;;6.22;3.83;;;;;;;21.50;62.26;100259.33;1837219;77;21109;-70
2021/06/30 05:10:32;;;;;;;8.00;3.72;;;;;;;21.58;60.89;100256.48;1854188;75;20942;-72
2021/06/30 05:12:58;;;;;;;8.18;3.83;;;;;;;21.59;60.33;100251.98;1847608;75;21081;-70
2021/06/30 05:15:25;;;;;;;6.25;3.85;;;;;;;21.59;60.27;100250.64;1842854;75;21116;-74
2021/06/30 05:17:54;;;;;;;7.53;3.87;;;;;;;21.59;60.47;100243.95;1844585;75;21025;-70
2021/06/30 05:20:20;;;;;;;9.00;4.67;;;;;;;21.60;60.85;100242.42;1825932;76;21021;-69
2021/06/30 05:22:47;;;;;;;5.72;3.77;;;;;;;21.63;60.88;100250.02;1813401;77;21517;-71
2021/06/30 05:25:13;;;;;;;6.65;4.03;;;;;;;21.70;61.15;100254.07;1780720;78;21021;-70
2021/06/30 05:27:40;;;;;;;5.78;4.22;;;;;;;21.75;60.49;100258.84;1803611;77;22196;-67
2021/06/30 05:30:08;;;;;;;7.45;4.00;;;;;;;21.77;60.02;100264.33;1813977;77;21081;-68
2021/06/30 05:32:35;;;;;;;6.03;3.85;;;;;;;21.81;60.11;100260.20;1756765;79;21153;-68
2021/06/30 05:35:02;;;;;;;6.90;4.03;;;;;;;21.92;59.92;100252.62;1777199;78;21518;-68
2021/06/30 05:37:28;;;;;;;6.12;3.92;;;;;;;22.03;59.97;100251.53;1784334;78;21079;-69
2021/06/30 05:39:57;;;;;;;6.72;3.98;;;;;;;22.14;59.28;100256.83;1812268;77;21347;-69
2021/06/30 05:42:23;;;;;;;6.72;3.80;;;;;;;22.19;59.13;100254.37;1804865;78;21721;-70
2021/06/30 05:44:51;;;;;;;5.50;3.62;;;;;;;22.27;58.90;100257.36;1790983;78;21066;-67
2021/06/30 05:47:18;;;;;;;6.58;4.08;;;;;;;22.31;58.98;100257.80;1771096;79;21525;-71
2021/06/30 05:49:44;;;;;;;6.95;4.50;;;;;;;22.37;59.55;100252.98;1805420;77;21061;-69
2021/06/30 05:52:11;;;;;;;6.60;4.80;;;;;;;22.41;59.22;100255.06;1753553;80;21466;-66
2021/06/30 05:54:38;;;;;;;6.37;4.12;;;;;;;22.45;59.55;100254.13;1786597;78;21703;-67
2021/06/30 05:57:05;;;;;;;7.60;4.40;;;;;;;22.48;59.01;100251.55;1782582;78;21031;-69
2021/06/30 05:59:31;;;;;;;7.22;4.83;;;;;;;22.48;58.94;100248.37;1779887;78;21134;-64
2021/06/30 06:01:57;;;;;;;5.47;3.45;;;;;;;22.52;58.72;100251.47;1775586;78;21117;-66
2021/06/30 06:04:24;;;;;;;7.28;4.15;;;;;;;22.63;58.50;100245.50;1767290;79;21098;-65
2021/06/30 06:06:51;;;;;;;6.03;4.00;;;;;;;22.72;57.57;100250.14;1738034;80;21070;-65
2021/06/30 06:09:18;;;;;;;6.08;3.75;;;;;;;22.76;57.48;100253.55;1769307;79;21135;-65
2021/06/30 06:11:46;;;;;;;5.95;4.08;;;;;;;22.83;57.53;100250.87;1765399;79;21055;-67
2021/06/30 06:14:13;;;;;;;5.72;4.10;;;;;;;22.88;57.56;100255.59;1763877;79;21998;-63
2021/06/30 06:16:39;;;;;;;6.28;3.98;;;;;;;22.92;57.41;100250.95;1762862;79;21094;-63
2021/06/30 06:19:05;;;;;;;6.97;4.25;;;;;;;22.96;57.81;100246.84;1734055;80;21105;-64
2021/06/30 06:21:32;;;;;;;5.85;3.87;;;;;;;23.05;58.66;100253.30;1745963;80;21113;-65
2021/06/30 06:23:59;;;;;;;7.05;3.98;;;;;;;23.10;58.63;100258.41;1763346;80;21032;-64
2021/06/30 06:26:26;;;;;;;7.03;4.35;;;;;;;23.21;57.90;100255.59;1764602;79;21119;-63
2021/06/30 06:28:52;;;;;;;6.60;3.77;;;;;;;23.35;57.39;100261.75;1770482;79;21083;-64
2021/06/30 06:31:20;;;;;;;6.47;4.05;;;;;;;23.47;57.10;100260.59;1731117;79;21702;-71
2021/06/30 06:33:46;;;;;;;6.22;3.80;;;;;;;23.51;56.34;100262.65;1761329;79;21109;-67
2021/06/30 06:36:13;;;;;;;4.87;3.30;;;;;;;23.54;55.93;100258.73;1765430;79;21520;-63
2021/06/30 06:38:40;;;;;;;6.00;2.98;;;;;;;23.55;55.60;100251.81;1784165;78;21060;-65
2021/06/30 06:41:06;;;;;;;6.95;3.50;;;;;;;23.60;55.13;100251.15;1736293;80;21572;-66
2021/06/30 06:43:34;;;;;;;5.62;4.05;;;;;;;23.67;55.14;100252.47;1768990;79;21157;-64
2021/06/30 06:46:02;;;;;;;9.05;4.05;;;;;;;23.72;55.73;100245.94;1777770;78;21199;-66
2021/06/30 06:48:28;;;;;;;5.10;3.30;;;;;;;23.74;55.98;100249.27;1781868;78;21052;-70
2021/06/30 06:50:56;;;;;;;6.15;3.52;;;;;;;23.76;55.60;100251.21;1762090;80;21128;-60
2021/06/30 06:53:22;;;;;;;5.28;3.30;;;;;;;23.71;55.17;100249.16;1754399;79;22301;-66
2021/06/30 06:55:50;;;;;;;7.37;3.08;;;;;;;23.68;54.64;100243.39;1765634;79;21087;-71
2021/06/30 06:58:17;;;;;;;6.08;2.95;;;;;;;23.66;53.80;100239.57;1767709;79;21411;-65
2021/06/30 07:00:45;;;;;;;4.50;2.55;;;;;;;23.67;53.63;100243.07;1770776;79;21097;-65
2021/06/30 07:03:11;;;;;;;5.42;2.22;;;;;;;23.71;53.62;100240.28;1790699;78;21540;-68
2021/06/30 07:05:39;;;;;;;3.98;2.27;;;;;;;23.77;52.15;100234.06;1790422;79;20983;-65
2021/06/30 07:08:06;;;;;;;4.85;2.37;;;;;;;23.80;50.41;100245.70;1756187;79;21130;-69
2021/06/30 07:10:32;;;;;;;5.42;2.40;;;;;;;23.83;51.29;100237.25;1788368;78;21130;-67
2021/06/30 07:12:59;;;;;;;4.42;2.25;;;;;;;23.90;50.35;100238.04;1787958;78;21072;-68
2021/06/30 07:15:26;;;;;;;4.08;2.12;;;;;;;23.97;49.95;100241.22;1789504;78;21061;-66
2021/06/30 07:17:52;;;;;;;4.80;2.40;;;;;;;24.01;50.04;100239.24;1790246;79;21074;-68
2021/06/30 07:20:19;;;;;;;4.53;2.30;;;;;;;24.05;50.26;100242.32;1761933;78;22490;-67
2021/06/30 07:22:46;;;;;;;6.47;3.47;;;;;;;24.11;49.77;100240.13;1760427;79;21269;-68
2021/06/30 07:25:14;;;;;;;6.58;3.12;;;;;;;24.16;51.23;100240.30;1790575;78;21662;-69
2021/06/30 07:27:42;;;;;;;5.25;3.37;;;;;;;24.21;51.05;100238.28;1791490;78;21855;-70
2021/06/30 07:30:10;;;;;;;6.15;3.98;;;;;;;24.24;51.65;100238.70;1789217;78;22251;-69
2021/06/30 07:32:36;;;;;;;5.78;3.20;;;;;;;24.30;52.10;100240.50;1789820;78;21081;-72
2021/06/30 07:35:03;;;;;;;5.97;3.70;;;;;;;24.35;51.79;100239.86;1758901;79;21053;-71
2021/06/30 07:37:30;;;;;;;6.25;3.17;;;;;;;24.39;52.34;100241.59;1764835;79;20990;-68
2021/06/30 07:39:56;;;;;;;4.87;3.02;;;;;;;24.44;52.31;100242.61;1783285;78;21068;-69
2021/06/30 07:42:23;;;;;;;5.78;3.22;;;;;;;24.53;52.27;100236.94;1775889;78;21066;-71
2021/06/30 07:44:52;;;;;;;5.47;3.22;;;;;;;24.57;51.43;100241.70;1789167;78;21136;-70
2021/06/30 07:47:18;;;;;;;6.03;3.37;;;;;;;24.62;51.09;100235.67;1792421;79;21028;-70
2021/06/30 07:49:45;;;;;;;8.18;4.20;;;;;;;24.69;51.68;100235.61;1795286;77;20988;-72
2021/06/30 07:52:12;;;;;;;5.65;3.20;;;;;;;24.73;51.04;100233.63;1785066;79;21112;-70
2021/06/30 07:54:38;;;;;;;5.28;3.20;;;;;;;24.78;51.39;100235.62;1782321;78;21074;-72
2021/06/30 07:57:04;;;;;;;6.30;3.55;;;;;;;24.83;51.97;100229.91;1775885;78;21109;-71
2021/06/30 07:59:33;;;;;;;7.78;3.62;;;;;;;24.88;51.61;100230.59;1744341;78;21091;-70
2021/06/30 08:02:01;;;;;;;7.70;3.77;;;;;;;24.92;51.33;100228.28;1772808;80;21105;-70
2021/06/30 08:04:29;;;;;;;6.95;3.72;;;;;;;24.99;51.50;100227.69;1786651;78;21045;-70
2021/06/30 08:06:56;;;;;;;6.17;3.12;;;;;;;25.03;51.08;100227.53;1778332;78;21015;-70
2021/06/30 08:09:22;;;;;;;6.05;3.58;;;;;;;25.07;51.52;100226.06;1813926;78;21061;-67
2021/06/30 08:11:50;;;;;;;6.00;3.22;;;;;;;25.13;51.16;100233.76;1813961;77;21021;-65
2021/06/30 08:14:17;;;;;;;6.22;3.67;;;;;;;25.17;51.30;100225.55;1811206;78;21289;-70
2021/06/30 08:16:44;;;;;;;5.55;3.60;;;;;;;25.22;51.29;100228.40;1783596;78;21073;-69
2021/06/30 08:19:11;;;;;;;5.55;2.92;;;;;;;25.29;51.38;100234.56;1772942;79;21042;-69
2021/06/30 08:21:38;;;;;;;4.97;3.12;;;;;;;25.38;50.87;100232.39;1784532;78;21473;-66
2021/06/30 08:24:05;;;;;;;6.03;3.30;;;;;;;25.46;51.78;100235.31;1816577;77;21090;-67
2021/06/30 08:26:31;;;;;;;4.47;2.92;;;;;;;25.53;51.52;100234.70;1784621;78;21546;-65
2021/06/30 08:28:59;;;;;;;5.65;3.30;;;;;;;25.58;51.31;100237.02;1764691;78;21104;-66
2021/06/30 08:31:26;;;;;;;5.92;3.65;;;;;;;25.61;51.16;100229.02;1814393;77;21686;-65
2021/06/30 08:33:53;;;;;;;5.25;3.00;;;;;;;25.63;51.03;100228.80;1753321;80;21050;-67
2021/06/30 08:36:19;;;;;;;5.50;2.98;;;;;;;25.65;50.92;100230.20;1799473;78;21136;-67
2021/06/30 08:38:46;;;;;;;4.92;3.05;;;;;;;25.70;50.62;100231.69;1799258;79;21030;-68
2021/06/30 08:41:13;;;;;;;5.80;3.58;;;;;;;25.77;50.43;100223.52;1784975;78;21143;-67
2021/06/30 08:43:39;;;;;;;5.03;3.40;;;;;;;25.84;50.61;100236.41;1759464;78;21127;-66
2021/06/30 08:46:07;;;;;;;5.35;3.60;;;;;;;25.91;49.81;100239.02;1761012;79;21007;-66
2021/06/30 08:48:35;;;;;;;6.50;3.70;;;;;;;25.99;49.78;100240.58;1795316;78;21839;-64
2021/06/30 08:51:02;;;;;;;5.85;3.60;;;;;;;26.04;49.16;100238.02;1769264;78;21104;-69
2021/06/30 08:53:31;;;;;;;6.85;3.30;;;;;;;26.10;50.13;100235.77;1785986;78;21034;-66
2021/06/30 08:55:57;;;;;;;6.37;4.00;;;;;;;26.16;49.11;100232.67;1755535;79;21062;-66
2021/06/30 08:58:23;;;;;;;5.70;3.75;;;;;;;26.21;48.77;100230.11;1797336;78;21509;-68
2021/06/30 09:00:50;;;;;;;5.90;3.65;;;;;;;26.22;48.97;100225.84;1794870;78;22120;-67
2021/06/30 09:03:18;;;;;;;5.30;3.30;;;;;;;26.24;49.21;100222.41;1754088;79;21057;-68
2021/06/30 09:08:22;;;;;;;5.33;3.25;;;;;;;26.37;48.73;100225.94;1768543;79;21057;-69
2021/06/30 09:10:50;;;;;;;6.83;3.67;;;;;;;26.44;48.72;100225.30;1746889;80;21059;-68
2021/06/30 09:13:24;;;;;;;6.05;3.30;;;;;;;26.50;48.85;100218.45;1735424;81;21115;-67
2021/06/30 09:16:02;;;;;;;6.28;3.27;;;;;;;26.59;48.54;100219.47;1764394;79;21026;-68
2021/06/30 09:18:36;;;;;;;4.92;3.22;;;;;;;26.66;48.50;100226.95;1770907;80;21514;-69
2021/06/30 09:21:29;;;;;;;4.97;3.12;;;;;;;26.74;48.06;100218.52;1765704;79;21069;-69
2021/06/30 09:24:11;;;;;;;5.10;3.12;;;;;;;26.83;48.07;100217.63;1779235;79;21065;-68
2021/06/30 09:26:54;;;;;;;5.00;2.83;;;;;;;26.84;47.16;100208.48;1780811;78;23292;-67
2021/06/30 09:29:21;;;;;;;6.33;3.00;;;;;;;26.80;46.68;100210.84;1760433;80;21066;-71
2021/06/30 09:31:51;;;;;;;4.45;2.65;;;;;;;26.76;46.30;100211.00;1733407;80;21557;-70
2021/06/30 09:34:22;;;;;;;5.10;2.55;;;;;;;26.69;45.67;100211.11;1748030;80;21557;-68
2021/06/30 09:37:04;;;;;;;4.83;2.70;;;;;;;26.66;46.62;100206.70;1760193;79;21093;-68
2021/06/30 09:39:36;;;;;;;6.53;2.77;;;;;;;26.67;47.23;100204.31;1747234;79;21576;-66
2021/06/30 09:42:13;;;;;;;4.90;3.10;;;;;;;26.75;48.29;100205.32;1757887;80;21014;-68
2021/06/30 09:44:42;;;;;;;4.60;2.67;;;;;;;26.90;48.50;100202.66;1775665;79;21011;-68
2021/06/30 09:47:08;;;;;;;5.05;2.87;;;;;;;27.07;47.93;100191.46;1719062;81;21034;-66
2021/06/30 09:49:37;;;;;;;5.10;2.80;;;;;;;27.23;48.38;100189.39;1751677;79;21049;-69
2021/06/30 09:52:17;;;;;;;6.10;2.67;;;;;;;27.39;47.82;100185.68;1760493;80;21088;-69
2021/06/30 09:54:47;;;;;;;5.20;2.60;;;;;;;27.49;46.55;100179.13;1752558;79;21083;-68
2021/06/30 09:57:16;;;;;;;5.08;2.90;;;;;;;27.54;46.81;100175.17;1753963;80;21065;-70
2021/06/30 09:59:44;;;;;;;5.45;2.80;;;;;;;27.61;46.31;100172.33;1780655;80;21078;-68
2021/06/30 10:02:19;;;;;;;5.72;2.98;;;;;;;27.71;46.65;100178.47;1780579;79;21034;-67
2021/06/30 10:05:00;;;;;;;7.25;3.10;;;;;;;27.78;45.78;100173.73;1779260;79;21210;-69
2021/06/30 10:07:29;;;;;;;5.75;3.10;;;;;;;27.82;45.43;100167.30;1781008;78;21101;-71
2021/06/30 10:10:01;;;;;;;7.00;3.35;;;;;;;27.89;46.08;100171.50;1793929;79;21036;-72
2021/06/30 10:12:29;;;;;;;5.58;2.90;;;;;;;28.00;45.67;100173.07;1787241;78;21105;-66
2021/06/30 10:14:59;;;;;;;6.28;3.10;;;;;;;28.06;45.66;100173.42;1783656;78;21092;-69
2021/06/30 10:17:25;;;;;;;7.12;3.10;;;;;;;28.08;44.67;100172.67;1751503;80;21139;-65
2021/06/30 10:19:54;;;;;;;5.50;3.00;;;;;;;28.07;45.29;100173.19;1771808;80;21054;-66
2021/06/30 10:22:26;;;;;;;5.22;3.05;;;;;;;28.06;44.84;100170.72;1750000;79;21057;-66
2021/06/30 10:24:53;;;;;;;5.12;2.77;;;;;;;28.11;44.72;100169.45;1770499;79;21085;-66
2021/06/30 10:27:19;;;;;;;6.65;3.25;;;;;;;28.11;44.50;100166.75;1768198;79;21054;-64
2021/06/30 10:29:55;;;;;;;5.28;2.52;;;;;;;28.10;45.00;100166.48;1745577;80;21082;-65
2021/06/30 10:32:22;;;;;;;5.87;3.12;;;;;;;28.10;44.96;100163.78;1771165;79;21050;-67
2021/06/30 10:34:53;;;;;;;5.58;2.85;;;;;;;28.13;45.05;100160.59;1771763;80;21054;-67
2021/06/30 10:37:23;;;;;;;6.40;2.83;;;;;;;28.15;46.03;100153.05;1768623;79;21042;-67
2021/06/30 10:40:07;;;;;;;6.50;2.70;;;;;;;28.22;42.83;100161.81;1772981;79;21532;-69
2021/06/30 10:42:43;;;;;;;5.85;2.95;;;;;;;28.24;42.11;100165.08;1764457;80;21045;-65
2021/06/30 10:45:20;;;;;;;4.65;2.52;;;;;;;28.25;41.24;100161.87;1777272;79;21035;-66
2021/06/30 10:48:05;;;;;;;5.17;2.35;;;;;;;28.22;40.25;100155.59;1756999;79;21567;-73
2021/06/30 10:50:38;;;;;;;;;;;;;;;28.17;39.97;100150.91;1767750;79;21046;-66
2021/06/30 10:53:16;;;;;;;4.75;2.40;;;;;;;28.18;40.06;100152.56;1770373;79;20251;-65
2021/06/30 10:55:51;;;;;;;4.37;2.15;;;;;;;28.17;39.88;100159.83;1759057;80;21196;-68
2021/06/30 10:58:23;;;;;;;3.52;2.02;;;;;;;28.16;39.03;100154.16;1766463;79;21226;-70
2021/06/30 11:01:02;;;;;;;4.33;2.25;;;;;;;28.19;38.06;100149.31;1764082;79;21069;-69
2021/06/30 11:03:47;;;;;;;4.80;2.62;;;;;;;28.27;38.85;100137.55;1779797;78;21070;-62
2021/06/30 11:06:25;;;;;;;5.75;2.27;;;;;;;28.43;39.14;100132.36;1784482;79;21089;-72
2021/06/30 11:09:09;;;;;;;4.33;2.20;;;;;;;28.59;39.31;100124.80;1782775;79;21088;-67
2021/06/30 11:11:49;;;;;;;4.50;2.55;;;;;;;28.70;37.51;100119.82;1786422;78;21112;-69
2021/06/30 11:14:19;;;;;;;5.05;2.02;;;;;;;28.79;38.56;100114.79;1789217;79;21536;-69
2021/06/30 11:16:51;;;;;;;3.90;2.20;;;;;;;28.90;37.90;100114.41;1783415;79;21114;-64
2021/06/30 11:19:24;;;;;;;4.30;2.40;;;;;;;29.01;35.27;100113.44;1786278;79;21097;-64
2021/06/30 11:22:01;;;;;;;4.83;2.20;;;;;;;29.14;36.43;100114.16;1784124;78;21043;-68
2021/06/30 11:24:43;;;;;;;;;;;;;;;29.27;37.12;100115.97;1789450;79;21050;-67
2021/06/30 11:27:22;;;;;;;4.75;2.17;;;;;;;29.37;36.64;100117.14;1790739;78;20186;-69
2021/06/30 11:29:58;;;;;;;4.30;2.30;;;;;;;29.34;35.66;100111.70;1790335;79;21097;-67
2021/06/30 11:32:37;;;;;;;4.53;2.02;;;;;;;29.32;35.74;100103.02;1756426;79;21057;-70
2021/06/30 11:35:23;;;;;;;7.90;2.80;;;;;;;29.34;36.40;100100.87;1782160;79;21132;-69
2021/06/30 11:38:11;;;;;;;4.28;2.10;;;;;;;29.39;37.19;100095.50;1743989;80;21066;-68